Time;durP1;ratioP1;P1;durP2;ratioP2;P2;SDS_P1;SDS_P2;PMS_P1;PMS_P2;Temp;Humidity;BMP_temperature;BMP_pressure;BME280_temperature;BME280_humidity;BME280_pressure;Samples;Min_cycle;Max_cycle;Signal;HPM_P1;HPM_P2
2022/12/07 00:01:17;;;;;;;11.65;2.70;;;;;;;8.66;71.05;101981.19;5033156;28;20029;-42
2022/12/07 00:03:44;;;;;;;6.95;1.88;;;;;;;8.62;70.04;101986.22;5033668;28;20042;-39
2022/12/07 00:06:12;;;;;;;6.53;2.00;;;;;;;8.58;69.69;101987.84;5033331;28;20025;-39
2022/12/07 00:08:38;;;;;;;5.97;2.05;;;;;;;8.47;69.84;101984.81;5033211;28;20478;-40
2022/12/07 00:11:12;;;;;;;8.68;2.25;;;;;;;8.46;69.83;101987.34;5033232;28;20061;-39
2022/12/07 00:13:39;;;;;;;9.00;2.03;;;;;;;8.36;69.33;101985.19;5033165;28;20030;-38
2022/12/07 00:16:10;;;;;;;9.85;1.98;;;;;;;8.26;69.30;101986.50;5033201;28;20056;-40
2022/12/07 00:18:36;;;;;;;5.07;1.70;;;;;;;8.14;69.57;101986.03;5032891;28;20033;-40
2022/12/07 00:21:10;;;;;;;6.68;1.80;;;;;;;8.04;70.04;101989.97;5033273;28;20037;-39
2022/12/07 00:23:36;;;;;;;7.15;1.80;;;;;;;8.05;70.70;101983.06;5033225;28;20037;-42
2022/12/07 00:26:14;;;;;;;6.70;1.92;;;;;;;7.99;70.44;101980.22;5033482;28;20439;-38
2022/12/07 00:28:40;;;;;;;6.22;1.75;;;;;;;7.99;70.09;101980.22;5032839;28;20095;-40
2022/12/07 00:31:12;;;;;;;5.30;1.60;;;;;;;7.83;69.76;101977.78;5032826;28;20029;-42
2022/12/07 00:33:38;;;;;;;7.40;1.60;;;;;;;7.80;69.30;101972.47;5032981;28;20091;-41
2022/12/07 00:36:07;;;;;;;5.10;1.65;;;;;;;7.78;69.19;101976.72;5032764;28;20029;-36
2022/12/07 00:38:34;;;;;;;6.78;1.52;;;;;;;7.68;69.35;101976.31;5032924;28;20036;-39
2022/12/07 00:41:03;;;;;;;6.93;1.52;;;;;;;7.62;69.49;101975.19;5032628;28;20163;-37
2022/12/07 00:43:29;;;;;;;5.53;1.50;;;;;;;7.56;69.10;101968.00;5033156;28;20021;-39
2022/12/07 00:45:55;;;;;;;5.78;1.42;;;;;;;7.56;69.40;101974.94;5031995;28;20022;-39
2022/12/07 00:48:21;;;;;;;4.90;1.50;;;;;;;7.55;69.96;101978.34;5033269;28;20176;-41
2022/12/07 00:50:47;;;;;;;6.55;2.00;;;;;;;7.69;70.04;101979.78;5033065;28;20021;-42
2022/12/07 00:53:13;;;;;;;6.78;1.63;;;;;;;7.38;71.33;101979.31;5033806;28;20377;-40
2022/12/07 00:55:38;;;;;;;8.93;1.30;;;;;;;7.68;71.86;101980.63;5033610;28;20025;-42
2022/12/07 00:58:04;;;;;;;6.75;1.70;;;;;;;7.83;71.32;101980.38;5033621;28;20017;-39
2022/12/07 01:00:30;;;;;;;7.72;1.60;;;;;;;7.79;71.19;101976.78;5033261;28;20025;-39
2022/12/07 01:02:55;;;;;;;6.05;1.70;;;;;;;7.98;70.68;101973.25;5033804;28;20030;-40
2022/12/07 01:05:20;;;;;;;5.93;1.52;;;;;;;7.70;71.05;101974.66;5034357;28;20104;-42
2022/12/07 01:07:46;;;;;;;5.70;1.40;;;;;;;7.88;70.43;101971.06;5034338;28;20109;-39
2022/12/07 01:10:12;;;;;;;6.28;1.20;;;;;;;7.93;70.09;101966.97;5035462;28;20028;-40
2022/12/07 01:12:38;;;;;;;4.53;1.30;;;;;;;7.84;69.91;101969.19;5034748;28;20059;-40
2022/12/07 01:15:04;;;;;;;6.50;1.60;;;;;;;7.46;70.89;101971.03;5034133;28;20293;-41
2022/12/07 01:17:30;;;;;;;4.95;1.30;;;;;;;7.62;70.08;101976.03;5031909;28;20033;-38
2022/12/07 01:19:55;;;;;;;5.93;1.30;;;;;;;7.59;69.88;101978.53;5032471;28;20539;-40
2022/12/07 01:22:20;;;;;;;3.95;1.10;;;;;;;7.54;69.32;101972.25;5031749;28;20390;-40
2022/12/07 01:24:46;;;;;;;5.00;1.20;;;;;;;7.43;69.47;101970.91;5032315;28;20029;-41
2022/12/07 01:27:12;;;;;;;4.03;1.20;;;;;;;7.41;69.28;101974.25;5032099;28;20021;-39
2022/12/07 01:29:37;;;;;;;5.50;1.30;;;;;;;7.40;69.01;101975.06;5032329;28;20091;-40
2022/12/07 01:32:03;;;;;;;7.28;1.38;;;;;;;7.43;69.55;101976.09;5031385;28;20754;-39
2022/12/07 01:34:28;;;;;;;4.47;1.13;;;;;;;7.43;70.27;101976.09;5031643;28;20021;-47
2022/12/07 01:36:53;;;;;;;4.95;1.40;;;;;;;7.53;70.49;101977.38;5031573;28;20109;-41
2022/12/07 01:39:19;;;;;;;5.65;1.30;;;;;;;7.60;70.53;101987.19;5031629;28;20108;-40
2022/12/07 01:41:44;;;;;;;6.35;1.20;;;;;;;7.25;71.36;101988.25;5031406;28;20040;-40
2022/12/07 01:44:14;;;;;;;4.57;1.13;;;;;;;7.48;71.62;101984.97;5031490;28;20442;-39
2022/12/07 01:46:41;;;;;;;7.65;1.33;;;;;;;7.69;70.80;101985.88;5031660;28;20462;-40
2022/12/07 01:49:12;;;;;;;3.92;0.93;;;;;;;7.55;71.52;101976.63;5031358;28;20041;-38
2022/12/07 01:51:40;;;;;;;4.80;1.10;;;;;;;7.54;71.72;101972.25;5031424;28;20091;-42
2022/12/07 01:54:06;;;;;;;4.43;1.00;;;;;;;7.55;71.85;101968.84;5032485;28;20112;-42
2022/12/07 01:56:32;;;;;;;5.78;1.00;;;;;;;7.73;71.30;101969.63;5033124;28;20061;-42
2022/12/07 01:59:00;;;;;;;7.15;1.00;;;;;;;7.84;70.36;101971.78;5032092;28;20040;-41
2022/12/07 02:01:25;;;;;;;3.38;0.82;;;;;;;7.89;69.41;101965.06;5031025;28;20112;-38
2022/12/07 02:03:52;;;;;;;6.05;1.08;;;;;;;7.84;69.37;101966.56;5031246;28;20108;-39
2022/12/07 02:06:20;;;;;;;3.30;0.73;;;;;;;7.72;69.30;101960.06;5030965;28;20041;-42
2022/12/07 02:08:46;;;;;;;3.47;0.80;;;;;;;7.62;68.99;101959.63;5031393;28;20052;-44
2022/12/07 02:11:12;;;;;;;5.68;0.80;;;;;;;7.54;69.39;101948.91;5030559;28;20494;-40
2022/12/07 02:13:40;;;;;;;1.58;0.60;;;;;;;7.48;69.09;101950.34;5030825;28;20068;-40
2022/12/07 02:16:50;;;;;;;2.78;0.75;;;;;;;7.33;70.18;101959.22;5030684;28;20035;-39
2022/12/07 02:19:35;;;;;;;4.82;0.80;;;;;;;6.77;71.96;101969.66;4986291;28;20052;-39
2022/12/07 02:22:07;;;;;;;6.45;0.70;;;;;;;6.88;74.92;101960.69;5030477;28;20040;-41
2022/12/07 02:24:48;;;;;;;5.38;0.65;;;;;;;7.71;72.95;101955.69;5031097;28;20451;-41
2022/12/07 02:27:39;;;;;;;8.73;0.88;;;;;;;8.04;71.50;101950.13;5030451;28;20025;-41
2022/12/07 02:30:07;;;;;;;8.45;1.05;;;;;;;8.21;70.97;101945.59;5027984;28;20126;-39
2022/12/07 02:32:47;;;;;;;5.57;0.70;;;;;;;8.23;70.85;101954.34;5030227;28;20049;-39
2022/12/07 02:35:24;;;;;;;7.57;0.85;;;;;;;8.35;70.32;101960.06;5030408;28;20025;-39
2022/12/07 02:38:08;;;;;;;6.68;0.68;;;;;;;8.15;70.76;101957.53;5030396;28;20397;-39
2022/12/07 02:40:47;;;;;;;4.88;0.52;;;;;;;8.14;70.58;101958.34;5030128;28;20033;-40
2022/12/07 02:43:28;;;;;;;5.32;0.60;;;;;;;8.20;70.24;101954.22;5030611;28;20018;-41
2022/12/07 02:45:59;;;;;;;7.60;0.82;;;;;;;8.11;70.95;101941.75;5030261;28;20470;-40
2022/12/07 02:48:26;;;;;;;4.82;0.50;;;;;;;8.29;70.17;101945.09;5030340;28;20125;-43
2022/12/07 02:50:53;;;;;;;9.38;0.80;;;;;;;8.43;69.94;101949.13;5030115;28;20033;-42
2022/12/07 02:53:32;;;;;;;6.97;0.80;;;;;;;8.14;69.88;101952.25;5030430;28;20059;-41
2022/12/07 02:56:05;;;;;;;4.13;0.60;;;;;;;8.41;69.68;101949.91;5030650;28;20049;-42
2022/12/07 02:58:51;;;;;;;4.00;0.77;;;;;;;8.17;70.87;101949.78;5030146;28;20025;-41
2022/12/07 03:01:41;;;;;;;4.45;0.98;;;;;;;8.48;69.87;101946.69;5015555;28;20513;-40
2022/12/07 03:04:32;;;;;;;2.30;0.60;;;;;;;8.51;69.87;101944.22;5030402;28;20053;-41
2022/12/07 03:07:06;;;;;;;3.30;0.60;;;;;;;8.51;69.79;101946.84;5006497;28;20106;-41
2022/12/07 03:09:46;;;;;;;7.43;0.73;;;;;;;8.48;69.32;101939.78;5029591;28;20028;-39
2022/12/07 03:12:21;;;;;;;4.22;0.50;;;;;;;8.52;68.99;101948.63;5030120;28;20090;-40
2022/12/07 03:14:55;;;;;;;4.82;0.60;;;;;;;8.43;69.04;101949.13;5030197;28;20025;-39
2022/12/07 03:17:27;;;;;;;6.10;0.50;;;;;;;8.25;69.44;101960.47;5030149;28;20060;-39
2022/12/07 03:19:57;;;;;;;6.35;0.70;;;;;;;8.22;69.36;101963.84;5031702;28;20029;-39
2022/12/07 03:22:25;;;;;;;5.13;0.70;;;;;;;8.22;69.11;101950.84;5030115;28;20470;-38
2022/12/07 03:24:56;;;;;;;6.25;0.90;;;;;;;8.15;69.34;101954.03;5029922;28;20029;-42
2022/12/07 03:27:27;;;;;;;4.93;0.68;;;;;;;8.06;69.61;101949.34;5030038;28;20071;-39
2022/12/07 03:30:00;;;;;;;6.65;0.85;;;;;;;8.07;69.64;101945.03;5030049;28;20032;-44
2022/12/07 03:32:33;;;;;;;6.32;1.00;;;;;;;8.10;69.25;101942.56;5029819;28;20041;-40
2022/12/07 03:35:07;;;;;;;3.28;0.75;;;;;;;7.98;69.11;101940.38;5030041;28;20099;-39
2022/12/07 03:37:35;;;;;;;5.03;0.60;;;;;;;7.95;68.78;101939.34;5030300;28;20573;-38
2022/12/07 03:40:04;;;;;;;3.75;0.80;;;;;;;7.87;68.63;101933.81;5029997;28;20336;-42
2022/12/07 03:42:31;;;;;;;4.57;0.90;;;;;;;7.80;68.50;101937.03;5029851;28;20060;-46
2022/12/07 03:44:56;;;;;;;2.38;0.70;;;;;;;7.76;68.86;101927.31;5030080;28;20021;-40
2022/12/07 03:47:33;;;;;;;4.90;0.75;;;;;;;7.69;68.72;101930.47;5030361;28;20030;-40
2022/12/07 03:50:07;;;;;;;3.35;0.77;;;;;;;7.62;68.50;101929.31;5030738;28;20099;-40
2022/12/07 03:52:48;;;;;;;5.90;1.00;;;;;;;7.55;68.48;101929.91;5030506;28;20036;-38
2022/12/07 03:55:29;;;;;;;3.88;0.63;;;;;;;7.51;68.54;101921.91;5030994;28;20048;-45
2022/12/07 03:58:06;;;;;;;4.00;0.70;;;;;;;7.45;68.54;101925.13;5032204;28;20024;-41
2022/12/07 04:00:32;;;;;;;6.20;0.75;;;;;;;7.38;68.48;101923.09;5031708;28;20499;-39
2022/12/07 04:02:58;;;;;;;4.20;0.60;;;;;;;7.33;68.38;101922.03;5032911;28;20038;-40
2022/12/07 04:05:24;;;;;;;4.07;1.02;;;;;;;7.37;68.82;101915.28;5034801;28;20036;-40
2022/12/07 04:07:49;;;;;;;7.00;2.60;;;;;;;7.38;68.85;101922.25;5035886;28;20025;-42
2022/12/07 04:10:15;;;;;;;7.05;3.03;;;;;;;7.35;69.76;101922.97;5035238;28;20360;-42
2022/12/07 04:12:40;;;;;;;7.28;2.50;;;;;;;7.22;70.80;101931.94;5036785;28;20033;-39
2022/12/07 04:15:06;;;;;;;4.93;0.90;;;;;;;7.22;71.49;101929.34;5032850;28;20018;-41
2022/12/07 04:17:32;;;;;;;9.20;1.10;;;;;;;7.65;70.85;101921.69;5030237;28;20417;-39
2022/12/07 04:19:57;;;;;;;5.80;0.90;;;;;;;7.68;70.04;101924.38;5031335;28;20156;-44
2022/12/07 04:22:22;;;;;;;5.28;0.88;;;;;;;7.82;69.67;101918.88;5033262;28;20025;-39
2022/12/07 04:24:48;;;;;;;6.10;0.75;;;;;;;8.03;69.21;101918.06;5033076;28;20501;-41
2022/12/07 04:27:13;;;;;;;6.10;0.98;;;;;;;8.13;69.08;101916.72;5035001;28;20026;-41
2022/12/07 04:29:38;;;;;;;4.45;0.82;;;;;;;8.27;68.36;101915.56;5036797;28;20104;-43
2022/12/07 04:32:04;;;;;;;8.90;0.90;;;;;;;8.28;67.25;101909.53;5035348;28;20084;-39
2022/12/07 04:34:29;;;;;;;5.82;0.73;;;;;;;8.22;67.04;101904.09;5033796;28;20091;-38
2022/12/07 04:36:54;;;;;;;4.00;0.82;;;;;;;8.12;67.00;101908.03;5033072;28;20025;-42
2022/12/07 04:39:26;;;;;;;2.33;0.60;;;;;;;8.00;66.70;101906.66;5032969;28;20112;-39
2022/12/07 04:41:52;;;;;;;3.03;0.63;;;;;;;7.90;66.87;101912.31;5033040;28;20033;-40
2022/12/07 04:44:19;;;;;;;8.00;0.90;;;;;;;7.70;67.73;101911.47;5034114;28;20048;-38
2022/12/07 04:46:44;;;;;;;4.28;1.17;;;;;;;7.74;67.68;101908.22;5033981;28;20032;-39
2022/12/07 04:49:11;;;;;;;5.25;1.20;;;;;;;7.71;67.92;101906.38;5033975;28;20017;-42
2022/12/07 04:51:36;;;;;;;4.63;0.70;;;;;;;7.78;68.08;101901.44;5033066;28;20398;-39
2022/12/07 04:54:01;;;;;;;6.07;0.90;;;;;;;7.74;68.31;101911.66;5032510;28;20029;-40
2022/12/07 04:56:27;;;;;;;4.28;0.75;;;;;;;7.92;68.35;101902.88;5032362;28;20056;-39
2022/12/07 04:58:53;;;;;;;3.72;0.80;;;;;;;8.04;68.56;101898.19;5032360;28;20022;-39
2022/12/07 05:01:20;;;;;;;2.25;0.80;;;;;;;8.02;68.30;101903.31;5032353;28;20124;-39
2022/12/07 05:03:45;;;;;;;3.72;0.80;;;;;;;7.84;68.43;101905.16;5032286;28;20104;-40
2022/12/07 05:06:11;;;;;;;3.47;0.80;;;;;;;7.88;67.81;101893.19;5032275;28;20434;-39
2022/12/07 05:08:37;;;;;;;5.63;1.20;;;;;;;7.57;68.44;101891.94;5032664;28;20097;-39
2022/12/07 05:11:04;;;;;;;3.80;0.90;;;;;;;7.57;68.11;101886.72;5032033;28;20121;-40
2022/12/07 05:13:29;;;;;;;5.97;1.20;;;;;;;7.32;69.22;101886.53;5032025;28;20041;-39
2022/12/07 05:15:54;;;;;;;4.40;0.75;;;;;;;7.32;67.87;101894.31;5032135;28;20507;-41
2022/12/07 05:18:20;;;;;;;6.55;0.95;;;;;;;7.32;67.87;101892.59;5031612;28;20026;-39
2022/12/07 05:20:45;;;;;;;5.95;1.02;;;;;;;7.19;67.82;101890.31;5031682;28;20025;-41
2022/12/07 05:23:11;;;;;;;3.28;1.02;;;;;;;7.13;67.75;101896.97;5031916;28;20036;-40
2022/12/07 05:25:37;;;;;;;4.57;1.10;;;;;;;7.08;67.87;101895.84;5032002;28;20030;-39
2022/12/07 05:28:02;;;;;;;3.00;1.10;;;;;;;7.04;67.82;101888.75;5031765;28;20025;-39
2022/12/07 05:30:28;;;;;;;5.55;1.20;;;;;;;6.98;67.64;101894.56;5031261;28;20033;-39
2022/12/07 05:32:53;;;;;;;5.20;1.00;;;;;;;6.98;67.73;101891.09;5031096;28;20060;-40
2022/12/07 05:35:19;;;;;;;2.70;1.13;;;;;;;6.91;67.91;101898.59;5031723;28;20105;-39
2022/12/07 05:37:45;;;;;;;5.53;1.20;;;;;;;6.88;67.91;101895.88;5031736;28;20390;-39
2022/12/07 05:40:11;;;;;;;4.68;1.15;;;;;;;6.70;68.79;101896.75;5031575;28;20029;-38
2022/12/07 05:42:37;;;;;;;4.00;1.00;;;;;;;6.82;68.30;101889.53;5031563;28;20022;-41
2022/12/07 05:45:03;;;;;;;5.97;1.13;;;;;;;6.87;68.45;101888.91;5032256;28;20525;-39
2022/12/07 05:47:29;;;;;;;6.95;1.20;;;;;;;6.88;68.24;101889.81;5031421;28;20113;-42
2022/12/07 05:49:54;;;;;;;5.18;1.10;;;;;;;6.90;68.50;101891.63;5031669;28;20778;-38
2022/12/07 05:52:19;;;;;;;5.35;1.00;;;;;;;6.93;68.91;101889.19;5031269;28;20075;-37
2022/12/07 05:54:45;;;;;;;4.35;1.10;;;;;;;6.89;68.96;101897.63;5031419;28;20075;-39
2022/12/07 05:57:10;;;;;;;4.55;1.30;;;;;;;6.92;68.90;101896.88;5031462;28;20021;-41
2022/12/07 05:59:35;;;;;;;3.83;1.00;;;;;;;6.93;69.32;101898.66;5029860;28;20021;-40
2022/12/07 06:02:05;;;;;;;6.35;1.20;;;;;;;7.02;69.25;101898.16;5031432;28;20128;-44
2022/12/07 06:04:34;;;;;;;5.22;1.13;;;;;;;7.12;68.88;101900.38;5031745;28;20637;-39
2022/12/07 06:06:59;;;;;;;6.22;1.10;;;;;;;7.03;69.01;101898.25;5031116;28;20025;-43
2022/12/07 06:09:27;;;;;;;4.60;1.17;;;;;;;7.06;68.77;101894.91;5030855;28;20033;-40
2022/12/07 06:14:37;;;;;;;5.55;1.30;;;;;;;6.89;68.62;101889.84;5031806;28;20045;-40
2022/12/07 06:17:02;;;;;;;5.72;1.30;;;;;;;6.95;68.62;101896.16;5031213;28;20022;-40
2022/12/07 06:19:27;;;;;;;3.55;1.30;;;;;;;6.97;68.70;101890.19;5030758;28;20116;-40
2022/12/07 06:21:54;;;;;;;4.63;1.20;;;;;;;6.86;68.75;101889.72;5030796;28;20040;-40
2022/12/07 06:24:19;;;;;;;5.43;1.40;;;;;;;6.86;68.77;101889.72;5030945;28;20026;-40
2022/12/07 06:26:45;;;;;;;7.75;1.50;;;;;;;6.80;68.53;101889.47;5031006;28;20025;-41
2022/12/07 06:29:12;;;;;;;7.47;1.50;;;;;;;6.82;68.55;101889.53;5031182;28;20025;-43
2022/12/07 06:31:37;;;;;;;8.38;2.10;;;;;;;6.82;68.81;101886.94;5030686;28;20540;-41
2022/12/07 06:34:09;;;;;;;6.25;1.40;;;;;;;6.86;69.04;101891.44;5031041;28;20040;-42
2022/12/07 06:36:35;;;;;;;10.65;1.80;;;;;;;6.75;69.48;101897.84;5030840;28;20055;-41
2022/12/07 06:39:00;;;;;;;8.13;2.47;;;;;;;6.48;71.11;101895.75;5029504;28;20393;-41
2022/12/07 06:41:25;;;;;;;7.18;1.73;;;;;;;6.68;71.72;101907.03;5030824;28;20049;-39
2022/12/07 06:43:51;;;;;;;8.73;1.30;;;;;;;6.86;71.88;101901.78;5030157;28;20028;-40
2022/12/07 06:46:16;;;;;;;7.63;1.20;;;;;;;7.26;71.27;101907.91;5030820;28;20025;-41
2022/12/07 06:48:42;;;;;;;5.53;1.20;;;;;;;7.47;71.20;101910.53;5030735;28;20041;-42
2022/12/07 06:51:08;;;;;;;7.13;1.17;;;;;;;7.80;70.63;101905.88;5030454;28;20026;-39
2022/12/07 06:53:34;;;;;;;5.82;0.82;;;;;;;7.95;70.02;101903.00;5030637;28;20386;-41
2022/12/07 06:56:00;;;;;;;8.77;1.00;;;;;;;7.85;69.39;101904.34;5031373;28;20021;-43
2022/12/07 06:58:25;;;;;;;8.38;1.00;;;;;;;7.88;68.72;101900.97;5031104;28;20103;-40
2022/12/07 07:00:50;;;;;;;5.57;1.00;;;;;;;7.77;68.52;101903.13;5031090;28;20098;-43
2022/12/07 07:03:16;;;;;;;4.25;0.80;;;;;;;7.67;68.32;101901.00;5031083;28;20512;-41
2022/12/07 07:05:42;;;;;;;3.95;0.90;;;;;;;7.60;68.07;101902.44;5032476;28;20025;-39
2022/12/07 07:08:08;;;;;;;6.10;1.10;;;;;;;7.55;68.35;101903.97;5032947;28;20071;-40
2022/12/07 07:10:33;;;;;;;6.75;1.40;;;;;;;7.34;69.40;101909.13;5032046;28;20085;-38
2022/12/07 07:12:59;;;;;;;6.47;1.05;;;;;;;7.51;69.81;101898.56;5033724;28;20044;-41
2022/12/07 07:15:24;;;;;;;5.55;1.08;;;;;;;7.65;69.20;101894.84;5034637;28;20029;-41
2022/12/07 07:17:50;;;;;;;5.95;0.90;;;;;;;7.67;68.55;101895.81;5031534;28;20068;-41
2022/12/07 07:20:15;;;;;;;5.53;1.15;;;;;;;7.54;68.46;101898.72;5030634;28;20402;-46
2022/12/07 07:22:40;;;;;;;1.92;0.80;;;;;;;7.57;68.68;101891.94;5030249;28;20059;-39
2022/12/07 07:25:07;;;;;;;4.07;0.80;;;;;;;7.54;67.95;101898.72;5031125;28;20033;-40
2022/12/07 07:27:32;;;;;;;5.57;0.98;;;;;;;7.34;68.26;101903.03;5030580;28;20082;-40
2022/12/07 07:29:57;;;;;;;4.60;1.00;;;;;;;7.35;68.12;101902.22;5030475;28;20120;-42
2022/12/07 07:32:22;;;;;;;6.78;1.17;;;;;;;7.24;68.26;101906.06;5029737;28;20028;-40
2022/12/07 07:34:48;;;;;;;5.15;1.10;;;;;;;7.25;68.21;101905.25;5029968;28;20402;-41
2022/12/07 07:37:13;;;;;;;4.75;1.27;;;;;;;7.29;68.61;101904.56;5030171;28;20036;-41
2022/12/07 07:39:39;;;;;;;7.45;1.20;;;;;;;7.38;68.71;101909.28;5029885;28;20084;-41
2022/12/07 07:42:04;;;;;;;3.88;0.60;;;;;;;7.52;68.91;101913.31;5029517;28;20029;-43
2022/12/07 07:44:30;;;;;;;6.63;0.82;;;;;;;7.56;69.08;101900.53;5028488;28;20029;-40
2022/12/07 07:46:55;;;;;;;6.35;0.80;;;;;;;7.61;69.07;101906.81;5030172;28;20056;-40
2022/12/07 07:49:20;;;;;;;12.30;0.95;;;;;;;7.78;69.07;101912.69;5030300;28;20036;-43
2022/12/07 07:51:46;;;;;;;6.50;0.93;;;;;;;7.94;69.25;101902.09;5029492;28;20049;-40
2022/12/07 07:54:11;;;;;;;7.55;0.80;;;;;;;8.04;69.25;101900.78;5029521;28;20031;-41
2022/12/07 07:56:36;;;;;;;4.63;0.90;;;;;;;8.04;68.69;101899.06;5033193;28;20104;-43
2022/12/07 07:59:02;;;;;;;4.07;0.93;;;;;;;8.00;68.79;101898.88;5033580;28;20026;-42
2022/12/07 08:01:27;;;;;;;6.07;0.88;;;;;;;8.05;68.29;101897.38;5033840;28;20120;-41
2022/12/07 08:03:52;;;;;;;5.35;1.10;;;;;;;8.07;68.21;101900.88;5034688;28;20026;-42
2022/12/07 08:06:18;;;;;;;5.22;1.27;;;;;;;7.98;68.12;101904.03;5034694;28;20025;-42
2022/12/07 08:08:43;;;;;;;2.33;0.90;;;;;;;7.85;67.88;101901.75;5035131;28;20048;-39
2022/12/07 08:11:09;;;;;;;4.18;1.10;;;;;;;7.78;67.44;101904.91;5035361;28;20076;-41
2022/12/07 08:13:37;;;;;;;3.63;1.00;;;;;;;7.69;67.53;101910.59;5035121;28;20492;-41
2022/12/07 08:16:09;;;;;;;5.40;1.20;;;;;;;7.59;67.55;101911.06;5034929;28;20064;-42
2022/12/07 08:18:39;;;;;;;7.00;1.10;;;;;;;7.53;67.80;101915.97;5035736;28;20028;-40
2022/12/07 08:21:05;;;;;;;2.58;0.88;;;;;;;7.53;68.37;101918.56;5035787;28;20029;-46
2022/12/07 08:23:31;;;;;;;4.80;1.20;;;;;;;7.64;68.67;101926.81;5036684;28;20032;-40
2022/12/07 08:26:04;;;;;;;2.50;1.20;;;;;;;7.57;69.18;101920.47;5034462;28;20025;-39
2022/12/07 08:28:30;;;;;;;4.60;1.10;;;;;;;7.96;69.84;101925.53;5033282;28;20051;-37
2022/12/07 08:31:03;;;;;;;4.22;1.23;;;;;;;8.21;68.95;101915.31;5033156;28;20206;-43
2022/12/07 08:33:29;;;;;;;3.97;1.20;;;;;;;8.08;68.31;101916.53;5033395;28;20033;-41
2022/12/07 08:35:54;;;;;;;3.45;1.25;;;;;;;8.11;67.98;101910.59;5033238;28;20572;-39
2022/12/07 08:38:20;;;;;;;3.53;1.20;;;;;;;8.16;68.14;101919.44;5032837;28;20104;-40
2022/12/07 08:40:53;;;;;;;4.72;1.05;;;;;;;8.13;67.97;101921.91;5032599;28;20030;-39
2022/12/07 08:43:18;;;;;;;3.53;1.10;;;;;;;8.15;68.11;101917.66;5032750;28;20032;-39
2022/12/07 08:45:44;;;;;;;3.60;1.00;;;;;;;8.10;68.11;101917.50;5032763;28;20417;-40
2022/12/07 08:48:13;;;;;;;4.68;1.10;;;;;;;8.22;68.32;101908.41;5032978;28;20021;-39
2022/12/07 08:50:39;;;;;;;2.92;1.30;;;;;;;8.25;69.08;101908.50;5032779;28;20037;-40
2022/12/07 08:53:06;;;;;;;3.58;1.30;;;;;;;8.43;69.29;101909.25;5032912;28;20021;-42
2022/12/07 08:55:33;;;;;;;4.47;1.30;;;;;;;8.58;69.94;101907.25;5032758;28;20021;-40
2022/12/07 08:57:59;;;;;;;6.82;2.00;;;;;;;8.75;69.20;101919.16;5032854;28;20039;-41
2022/12/07 09:00:25;;;;;;;5.13;1.70;;;;;;;8.58;68.41;101925.44;5032340;28;20021;-39
2022/12/07 09:02:51;;;;;;;5.30;1.70;;;;;;;8.66;69.06;101931.81;5032505;28;20021;-42
2022/12/07 09:05:16;;;;;;;6.50;1.75;;;;;;;8.55;69.22;101926.22;5032527;28;20025;-46
2022/12/07 09:07:45;;;;;;;6.65;2.35;;;;;;;8.82;68.29;101917.69;5031618;28;20035;-39
2022/12/07 09:10:11;;;;;;;8.00;1.77;;;;;;;9.03;67.70;101909.75;5032401;28;20057;-45
2022/12/07 09:12:36;;;;;;;7.13;1.83;;;;;;;9.18;68.12;101911.22;5031186;28;20327;-40
2022/12/07 09:15:02;;;;;;;4.82;1.40;;;;;;;9.19;67.92;101913.00;5032871;28;20025;-38
2022/12/07 09:17:31;;;;;;;5.63;1.60;;;;;;;9.05;67.97;101909.00;5032240;28;20117;-41
2022/12/07 09:19:56;;;;;;;5.15;1.45;;;;;;;9.04;67.84;101919.34;5034303;28;20033;-41
2022/12/07 09:22:21;;;;;;;6.25;1.77;;;;;;;8.69;68.29;101912.84;5032639;28;20067;-42
2022/12/07 09:24:47;;;;;;;3.47;1.70;;;;;;;8.74;68.20;101912.19;5033224;28;20021;-44
2022/12/07 09:27:12;;;;;;;6.20;1.70;;;;;;;8.76;67.61;101913.16;5035123;28;20486;-41
2022/12/07 09:29:38;;;;;;;6.82;2.10;;;;;;;8.70;67.82;101919.84;5036045;28;20028;-40
2022/12/07 09:32:03;;;;;;;6.68;1.70;;;;;;;8.51;68.15;101918.25;5032732;28;20025;-38
2022/12/07 09:34:31;;;;;;;4.68;1.77;;;;;;;8.56;68.27;101908.91;5032524;28;20168;-42
2022/12/07 09:36:57;;;;;;;3.70;1.63;;;;;;;8.55;68.13;101909.72;5032735;28;20056;-42
2022/12/07 09:39:22;;;;;;;5.18;1.50;;;;;;;8.62;68.70;101906.53;5032304;28;20391;-41
2022/12/07 09:41:48;;;;;;;5.75;1.42;;;;;;;8.75;68.71;101913.09;5032307;28;20429;-39
2022/12/07 09:44:20;;;;;;;7.38;1.58;;;;;;;8.85;69.02;101912.59;5032347;28;20430;-42
2022/12/07 09:46:45;;;;;;;5.63;1.55;;;;;;;9.10;69.61;101914.34;5032552;28;20021;-39
2022/12/07 09:49:20;;;;;;;6.72;1.60;;;;;;;9.42;70.78;101913.78;5032405;28;20478;-41
2022/12/07 09:51:46;;;;;;;7.10;1.50;;;;;;;9.70;70.34;101907.78;5032115;28;20021;-40
2022/12/07 09:54:14;;;;;;;6.75;0.93;;;;;;;9.93;69.20;101903.34;5032261;28;20100;-43
2022/12/07 09:56:39;;;;;;;3.95;1.10;;;;;;;10.04;68.40;101905.44;5032631;28;20117;-41
2022/12/07 09:59:04;;;;;;;6.25;1.20;;;;;;;9.99;67.39;101907.03;5032991;28;20529;-40
2022/12/07 10:01:32;;;;;;;7.00;1.25;;;;;;;9.90;67.52;101904.13;5032521;28;20108;-43
2022/12/07 10:04:21;;;;;;;4.32;1.10;;;;;;;9.91;67.01;101900.69;5032903;28;20104;-40
2022/12/07 10:06:47;;;;;;;4.85;0.98;;;;;;;9.94;66.38;101905.13;5033336;28;20478;-40
2022/12/07 10:09:15;;;;;;;6.32;1.35;;;;;;;9.92;66.60;101898.97;5031549;28;20045;-42
2022/12/07 10:12:10;;;;;;;9.68;1.00;;;;;;;9.82;66.55;101899.50;5030234;28;20025;-41
2022/12/07 10:14:56;;;;;;;7.90;1.38;;;;;;;9.83;66.72;101901.25;5031605;28;20579;-38
2022/12/07 10:17:46;;;;;;;5.50;1.30;;;;;;;9.91;67.10;101891.97;5031341;28;20052;-41
2022/12/07 10:20:16;;;;;;;6.50;1.10;;;;;;;9.95;67.68;101884.31;5031454;28;20086;-40
2022/12/07 10:23:13;;;;;;;5.18;1.13;;;;;;;9.96;67.20;101886.06;5031032;28;20028;-44
2022/12/07 10:25:40;;;;;;;4.32;0.90;;;;;;;9.76;67.96;101885.44;5027538;28;20053;-40
2022/12/07 10:28:08;;;;;;;4.78;0.90;;;;;;;10.03;67.47;101887.16;5031860;28;20028;-40
2022/12/07 10:31:08;;;;;;;7.07;1.05;;;;;;;10.44;66.24;101878.91;5033223;28;20037;-41
2022/12/07 10:33:36;;;;;;;3.90;0.65;;;;;;;10.18;64.71;101881.59;5036496;28;20025;-42
2022/12/07 10:36:18;;;;;;;3.75;0.70;;;;;;;10.31;63.41;101871.56;5036195;28;20109;-40
2022/12/07 10:38:46;;;;;;;3.83;0.80;;;;;;;10.47;63.98;101870.31;5032756;28;20031;-41
2022/12/07 10:41:11;;;;;;;4.70;0.80;;;;;;;10.18;63.92;101871.16;5032369;28;20026;-40
2022/12/07 10:43:44;;;;;;;4.63;0.75;;;;;;;10.41;64.31;101867.53;5035133;28;20032;-39
2022/12/07 10:46:34;;;;;;;6.68;0.95;;;;;;;10.33;63.82;101862.06;5034688;28;20040;-40
2022/12/07 10:49:19;;;;;;;4.95;0.77;;;;;;;10.22;63.80;101852.19;5036042;28;20387;-40
2022/12/07 10:52:13;;;;;;;5.68;1.10;;;;;;;9.71;65.33;101854.88;5031568;28;20038;-41
2022/12/07 10:54:54;;;;;;;5.75;1.10;;;;;;;10.10;63.57;101850.03;5029292;28;20033;-41
2022/12/07 10:57:34;;;;;;;3.42;0.77;;;;;;;9.92;61.43;101849.47;5030738;28;20052;-40
2022/12/07 11:00:13;;;;;;;8.18;1.00;;;;;;;9.79;62.52;101845.59;5030781;28;20045;-41
2022/12/07 11:03:16;;;;;;;7.03;0.77;;;;;;;10.22;61.86;101842.63;5029961;28;20025;-44
2022/12/07 11:05:56;;;;;;;3.80;0.70;;;;;;;10.36;61.38;101832.63;5031189;28;20439;-44
2022/12/07 11:08:40;;;;;;;7.13;1.08;;;;;;;10.34;62.06;101829.09;5031209;28;20068;-43
2022/12/07 11:11:25;;;;;;;4.10;0.77;;;;;;;10.51;62.23;101827.84;5031450;28;20485;-41
2022/12/07 11:14:04;;;;;;;7.07;1.30;;;;;;;10.59;62.06;101823.75;5033178;28;20080;-39
2022/12/07 11:16:51;;;;;;;5.57;1.60;;;;;;;10.55;61.13;101824.50;5034497;28;20493;-42
2022/12/07 11:19:22;;;;;;;7.10;1.30;;;;;;;10.52;61.51;101822.69;5033092;28;20108;-43
2022/12/07 11:22:03;;;;;;;5.90;1.10;;;;;;;10.66;62.33;101823.06;5031559;28;20030;-41
2022/12/07 11:24:40;;;;;;;6.25;1.10;;;;;;;10.12;63.08;101824.94;5030914;28;20025;-43
2022/12/07 11:27:41;;;;;;;3.42;0.90;;;;;;;10.10;60.46;101824.88;5031472;28;20032;-44
2022/12/07 11:30:18;;;;;;;3.22;0.82;;;;;;;10.44;59.27;101820.69;5031311;28;20051;-42
2022/12/07 11:33:12;;;;;;;2.15;0.60;;;;;;;10.44;61.16;101824.16;5034636;28;20100;-42
2022/12/07 11:36:12;;;;;;;7.65;0.70;;;;;;;9.86;62.38;101818.91;5034464;28;20028;-41
2022/12/07 11:38:48;;;;;;;3.25;0.60;;;;;;;9.36;63.42;101827.69;5029816;28;20041;-40
2022/12/07 11:41:22;;;;;;;8.50;0.90;;;;;;;9.55;63.97;101827.47;5033836;28;20060;-40
2022/12/07 11:43:59;;;;;;;7.10;1.05;;;;;;;9.36;65.98;101819.88;5034110;28;20033;-41
2022/12/07 11:46:31;;;;;;;4.07;0.90;;;;;;;9.29;66.69;101823.09;5033739;28;20112;-41